createdAt,value
2018-07-10T00:01:06.411Z,62.10
2018-07-10T00:04:08.438Z,62.10
2018-07-10T00:06:55.382Z,60.50
2018-07-10T00:09:49.829Z,60.40
2018-07-10T00:12:23.375Z,61.00
2018-07-10T00:14:56.767Z,60.80
2018-07-10T00:17:30.238Z,60.70
2018-07-10T00:20:03.771Z,61.00
2018-07-10T00:22:37.201Z,61.70
2018-07-10T00:25:10.672Z,60.60
2018-07-10T00:27:44.155Z,60.20
2018-07-10T00:30:17.639Z,60.70
2018-07-10T00:32:51.138Z,61.10
2018-07-10T00:38:08.934Z,61.60
2018-07-10T00:40:42.400Z,61.90
2018-07-10T00:43:15.910Z,61.50
2018-07-10T00:45:49.487Z,61.70
2018-07-10T00:51:17.982Z,61.50
2018-07-10T00:53:52.024Z,62.10
2018-07-10T00:56:25.604Z,61.90
2018-07-10T00:58:59.675Z,62.00
2018-07-10T01:01:33.759Z,61.90
2018-07-10T01:04:07.251Z,62.00
2018-07-10T01:06:40.706Z,62.40
2018-07-10T01:09:15.462Z,62.60
2018-07-10T01:11:48.940Z,62.10
2018-07-10T01:14:22.400Z,61.90
2018-07-10T01:16:55.856Z,61.70
2018-07-10T01:19:29.368Z,61.50
2018-07-10T01:22:02.838Z,61.60
2018-07-10T01:24:36.334Z,61.60
2018-07-10T01:27:10.037Z,61.40
2018-07-10T01:29:48.580Z,61.70
2018-07-10T01:32:22.009Z,62.10
2018-07-10T01:34:55.488Z,61.40
2018-07-10T01:37:28.964Z,62.10
2018-07-10T01:40:03.105Z,61.80
2018-07-10T01:42:36.602Z,61.50
2018-07-10T01:45:10.063Z,62.00
2018-07-10T01:47:43.601Z,61.60
2018-07-10T01:50:17.046Z,62.50
2018-07-10T01:52:50.528Z,62.40
2018-07-10T01:55:23.947Z,62.60
2018-07-10T01:57:57.988Z,63.00
2018-07-10T02:00:42.135Z,63.90
2018-07-10T02:03:15.618Z,63.00
2018-07-10T02:05:49.077Z,63.20
2018-07-10T02:08:22.586Z,63.30
2018-07-10T02:10:56.044Z,64.50
2018-07-10T02:13:29.533Z,65.10
2018-07-10T02:16:03.007Z,65.70
2018-07-10T02:18:36.475Z,66.20
2018-07-10T02:21:10.245Z,67.20
2018-07-10T02:23:45.461Z,65.90
2018-07-10T02:26:21.515Z,66.60
2018-07-10T02:28:55.637Z,66.50
2018-07-10T02:34:02.211Z,65.90
2018-07-10T02:36:35.665Z,66.00
2018-07-10T02:39:09.115Z,66.90
2018-07-10T02:41:42.550Z,66.10
2018-07-10T02:44:16.126Z,66.70
2018-07-10T02:46:49.584Z,66.80
2018-07-10T02:49:23.728Z,66.30
2018-07-10T02:52:00.380Z,66.70
2018-07-10T02:54:36.511Z,67.40
2018-07-10T02:57:11.682Z,67.90
2018-07-10T02:59:46.665Z,67.80
2018-07-10T03:02:27.973Z,68.40
2018-07-10T03:08:28.085Z,68.00
2018-07-10T03:11:27.843Z,69.50
2018-07-10T03:16:50.383Z,69.30
2018-07-10T03:19:24.184Z,68.60
2018-07-10T03:21:57.666Z,68.80
2018-07-10T03:24:31.084Z,68.50
2018-07-10T03:27:04.592Z,68.10
2018-07-10T03:29:38.100Z,68.30
2018-07-10T03:32:11.656Z,68.40
2018-07-10T03:34:45.097Z,69.50
2018-07-10T03:37:19.601Z,70.10
2018-07-10T03:39:53.440Z,68.60
2018-07-10T03:42:27.685Z,69.20
2018-07-10T03:45:01.215Z,69.30
2018-07-10T03:47:34.633Z,69.90
2018-07-10T03:50:08.189Z,69.50
2018-07-10T03:52:43.544Z,70.90
2018-07-10T03:55:18.391Z,70.10
2018-07-10T03:57:56.279Z,71.00
2018-07-10T04:00:29.936Z,70.90
2018-07-10T04:03:03.816Z,71.20
2018-07-10T04:05:37.320Z,70.70
2018-07-10T04:08:10.813Z,70.60
2018-07-10T04:10:59.900Z,69.70
2018-07-10T04:13:34.464Z,68.30
2018-07-10T04:16:08.022Z,68.10
2018-07-10T04:18:46.443Z,67.80
2018-07-10T04:21:24.503Z,67.60
2018-07-10T04:24:04.005Z,67.20
2018-07-10T04:26:39.823Z,67.40
2018-07-10T04:29:19.083Z,67.60
2018-07-10T04:31:58.258Z,67.20
2018-07-10T04:34:32.840Z,68.10
2018-07-10T04:37:09.291Z,67.60
2018-07-10T04:39:44.077Z,67.50
2018-07-10T04:43:05.958Z,67.30
2018-07-10T04:45:41.392Z,66.40
2018-07-10T04:48:35.274Z,65.60
2018-07-10T04:51:17.640Z,65.20
2018-07-10T04:53:54.804Z,65.00
2018-07-10T04:56:29.611Z,65.30
2018-07-10T04:59:03.234Z,65.20
2018-07-10T05:01:36.817Z,65.60
2018-07-10T05:04:10.328Z,65.80
2018-07-10T05:06:43.943Z,66.10
2018-07-10T05:09:17.501Z,66.50
2018-07-10T05:11:51.060Z,66.30
2018-07-10T05:14:24.629Z,66.10
2018-07-10T05:16:58.118Z,66.90
2018-07-10T05:19:32.328Z,66.90
2018-07-10T05:22:41.283Z,66.50
2018-07-10T05:25:14.878Z,66.20
2018-07-10T05:27:49.104Z,64.00
2018-07-10T05:30:22.684Z,63.10
2018-07-10T05:32:56.237Z,63.40
2018-07-10T05:35:29.921Z,63.90
2018-07-10T05:44:26.919Z,64.20
2018-07-10T05:53:06.166Z,63.90
2018-07-10T05:55:44.496Z,63.50
2018-07-10T05:58:18.117Z,63.70
2018-07-10T06:00:51.931Z,63.30
2018-07-10T06:03:25.593Z,63.50
2018-07-10T06:05:59.267Z,62.70
2018-07-10T06:08:33.051Z,62.80
2018-07-10T06:11:06.776Z,62.70
2018-07-10T06:13:40.432Z,62.80
2018-07-10T06:16:14.297Z,63.30
2018-07-10T06:18:48.400Z,64.10
2018-07-10T06:21:22.922Z,64.90
2018-07-10T06:23:56.609Z,65.80
2018-07-10T06:26:30.237Z,65.40
2018-07-10T06:29:05.704Z,65.20
2018-07-10T06:31:45.482Z,64.50
2018-07-10T06:34:50.666Z,63.10
2018-07-10T06:37:54.553Z,64.30
2018-07-10T06:41:17.324Z,63.70
2018-07-10T06:48:21.639Z,63.80
2018-07-10T06:55:43.937Z,62.70
2018-07-10T07:05:42.135Z,60.70
2018-07-10T07:33:05.137Z,60.80
2018-07-10T07:36:09.027Z,61.30
2018-07-10T07:39:12.822Z,60.80
2018-07-10T07:42:18.003Z,60.70
2018-07-10T07:45:30.053Z,60.50
2018-07-10T07:48:34.009Z,59.20
2018-07-10T07:51:37.718Z,58.50
2018-07-10T07:54:41.839Z,58.80
2018-07-10T07:57:45.692Z,58.10
2018-07-10T08:00:49.627Z,58.70
2018-07-10T08:06:57.282Z,59.30
2018-07-10T08:10:01.311Z,59.20
2018-07-10T08:13:05.384Z,59.90
2018-07-10T08:16:09.299Z,60.30
2018-07-10T08:19:14.413Z,61.00
2018-07-10T08:22:18.259Z,62.50
2018-07-10T08:25:22.746Z,62.20
2018-07-10T08:28:26.527Z,62.50
2018-07-10T08:31:30.385Z,63.10
2018-07-10T08:34:34.293Z,63.00
2018-07-10T08:37:38.214Z,64.60
2018-07-10T08:40:42.184Z,66.50
2018-07-10T08:43:46.516Z,65.90
2018-07-10T08:46:52.647Z,67.70
2018-07-10T08:49:56.575Z,66.20
2018-07-10T08:53:00.677Z,66.20
2018-07-10T08:56:04.816Z,66.30
2018-07-10T08:59:08.814Z,65.90
2018-07-10T09:02:12.749Z,65.10
2018-07-10T09:05:16.615Z,66.60
2018-07-10T09:08:20.307Z,66.30
2018-07-10T09:11:24.300Z,65.50
2018-07-10T09:14:28.184Z,65.70
2018-07-10T09:17:32.286Z,64.70
2018-07-10T09:20:40.448Z,64.90
2018-07-10T09:23:44.316Z,64.50
2018-07-10T09:26:49.289Z,63.80
2018-07-10T09:29:53.229Z,62.30
2018-07-10T09:32:57.307Z,61.50
2018-07-10T09:36:02.008Z,60.80
2018-07-10T09:39:06.035Z,59.70
2018-07-10T09:42:09.987Z,59.60
2018-07-10T09:45:14.274Z,58.70
2018-07-10T09:48:18.274Z,58.20
2018-07-10T09:54:25.766Z,58.00
2018-07-10T09:57:29.957Z,57.60
2018-07-10T10:00:39.456Z,58.20
2018-07-10T10:03:43.581Z,57.00
2018-07-10T10:10:14.786Z,58.50
2018-07-10T10:13:18.684Z,59.80
2018-07-10T10:17:01.046Z,66.40
2018-07-10T10:23:33.107Z,70.00
2018-07-10T10:26:54.272Z,71.90
2018-07-10T10:30:19.652Z,73.00
2018-07-10T10:40:22.350Z,76.70
2018-07-10T10:43:43.564Z,79.40
2018-07-10T10:50:52.799Z,81.40
2018-07-10T10:57:36.363Z,80.00
2018-07-10T11:01:30.089Z,79.50
2018-07-10T11:11:45.571Z,78.20
2018-07-10T11:45:43.089Z,69.20
2018-07-10T11:49:03.971Z,69.20
2018-07-10T11:56:05.245Z,67.40
2018-07-10T11:59:25.346Z,68.60
2018-07-10T12:07:01.771Z,67.00
2018-07-10T12:10:32.345Z,66.20
2018-07-10T12:13:43.095Z,67.80
2018-07-10T12:17:08.341Z,67.60
2018-07-10T12:33:53.975Z,69.30
2018-07-10T12:36:57.830Z,70.00
2018-07-10T12:40:01.720Z,68.70
2018-07-10T12:43:05.544Z,67.60
2018-07-10T12:46:09.491Z,68.70
2018-07-10T12:49:13.267Z,68.60
2018-07-10T12:52:17.040Z,66.50
2018-07-10T12:55:22.899Z,63.00
2018-07-10T12:58:27.177Z,64.60
2018-07-10T13:01:30.999Z,64.00
2018-07-10T13:04:35.233Z,63.70
2018-07-10T13:07:39.894Z,62.40
2018-07-10T13:10:43.774Z,61.70
2018-07-10T13:13:47.540Z,60.00
2018-07-10T13:16:51.429Z,59.20
2018-07-10T13:19:57.230Z,59.60
2018-07-10T13:23:01.039Z,59.80
2018-07-10T13:26:04.808Z,60.00
2018-07-10T13:29:08.660Z,58.50
2018-07-10T13:32:12.456Z,59.20
2018-07-10T13:35:16.321Z,58.00
2018-07-10T13:38:20.935Z,59.00
2018-07-10T13:41:24.720Z,58.00
2018-07-10T13:44:28.476Z,57.30
2018-07-10T13:47:32.307Z,57.20
2018-07-10T13:50:57.679Z,56.80
2018-07-10T13:54:01.518Z,56.70
2018-07-10T13:57:05.662Z,57.60
2018-07-10T14:00:09.423Z,55.00
2018-07-10T14:03:13.206Z,55.90
2018-07-10T14:06:16.952Z,55.50
2018-07-10T14:09:20.799Z,55.20
2018-07-10T14:19:36.824Z,55.60
2018-07-10T14:22:40.952Z,55.90
2018-07-10T14:25:44.702Z,56.40
2018-07-10T14:28:48.709Z,54.20
2018-07-10T14:31:52.527Z,54.10
2018-07-10T14:35:33.544Z,55.00
2018-07-10T14:38:41.471Z,54.60
2018-07-10T14:41:46.109Z,55.80
2018-07-10T14:48:02.745Z,52.60
2018-07-10T14:51:32.762Z,53.30
2018-07-10T14:54:37.255Z,53.40
2018-07-10T14:57:41.210Z,53.50
2018-07-10T15:00:53.306Z,52.50
2018-07-10T15:03:57.219Z,53.00
2018-07-10T15:07:01.089Z,53.20
2018-07-10T15:10:04.962Z,50.80
2018-07-10T15:13:39.832Z,51.10
2018-07-10T15:16:48.809Z,51.30
2018-07-10T15:19:52.623Z,50.80
2018-07-10T15:22:56.858Z,51.90
2018-07-10T15:26:01.020Z,50.60
2018-07-10T15:29:05.599Z,50.00
2018-07-10T15:35:31.542Z,50.50
2018-07-10T15:38:39.877Z,50.30
2018-07-10T15:41:46.900Z,49.40
2018-07-10T15:44:51.020Z,49.50
2018-07-10T15:54:26.924Z,47.90
2018-07-10T15:57:38.229Z,49.10
2018-07-10T16:03:59.781Z,48.40
2018-07-10T16:07:04.344Z,48.30
2018-07-10T16:10:08.090Z,48.40
2018-07-10T16:13:15.853Z,48.70
2018-07-10T16:16:20.545Z,48.70
2018-07-10T16:19:33.052Z,48.00
2018-07-10T16:22:38.831Z,48.00
2018-07-10T16:26:00.560Z,47.20
2018-07-10T16:29:30.048Z,47.70
2018-07-10T16:32:36.204Z,47.70
2018-07-10T16:35:39.918Z,47.60
2018-07-10T16:38:44.557Z,47.10
2018-07-10T16:41:55.592Z,47.70
2018-07-10T16:44:59.341Z,48.70
2018-07-10T16:48:14.600Z,48.50
2018-07-10T16:51:26.197Z,48.70
2018-07-10T16:54:30.139Z,47.20
2018-07-10T17:05:03.448Z,48.20
2018-07-10T17:22:53.328Z,47.50
2018-07-10T17:26:12.720Z,47.60
2018-07-10T17:33:24.010Z,48.40
2018-07-10T18:11:06.309Z,47.00
2018-07-10T18:14:09.977Z,47.40
2018-07-10T18:17:13.601Z,46.20
2018-07-10T18:20:17.260Z,46.70
2018-07-10T18:23:20.909Z,47.20
2018-07-10T18:26:40.379Z,47.80
2018-07-10T18:29:53.570Z,47.60
2018-07-10T18:33:01.235Z,48.90
2018-07-10T18:36:07.763Z,49.80
2018-07-10T18:39:11.614Z,50.50
2018-07-10T18:42:27.704Z,50.20
2018-07-10T18:45:31.539Z,52.10
2018-07-10T18:48:35.232Z,51.70
2018-07-10T18:51:38.980Z,52.50
2018-07-10T18:54:42.669Z,53.80
2018-07-10T18:57:59.078Z,54.30
2018-07-10T19:02:11.129Z,54.70
2018-07-10T19:05:14.719Z,53.40
2018-07-10T19:08:18.403Z,54.80
2018-07-10T19:11:25.410Z,54.70
2018-07-10T19:14:28.995Z,54.70
2018-07-10T19:17:33.113Z,55.10
2018-07-10T19:20:38.194Z,56.10
2018-07-10T19:23:47.618Z,57.90
2018-07-10T19:26:54.474Z,58.80
2018-07-10T19:30:10.445Z,59.40
2018-07-10T19:33:14.238Z,60.00
2018-07-10T19:36:18.594Z,60.80
2018-07-10T19:39:25.341Z,61.80
2018-07-10T19:42:30.805Z,62.20
2018-07-10T19:45:34.419Z,62.30
2018-07-10T19:48:38.048Z,62.40
2018-07-10T19:51:42.050Z,63.40
2018-07-10T19:54:48.898Z,64.90
2018-07-10T19:58:15.223Z,64.80
2018-07-10T20:01:55.400Z,65.70
2018-07-10T20:05:02.753Z,65.10
2018-07-10T20:08:15.227Z,65.80
2018-07-10T20:11:26.726Z,66.40
2018-07-10T20:14:32.962Z,66.30
2018-07-10T20:17:39.767Z,66.30
2018-07-10T20:20:49.787Z,66.20
2018-07-10T20:24:03.435Z,66.70
2018-07-10T20:27:17.888Z,67.40
2018-07-10T20:30:39.107Z,68.50
2018-07-10T20:33:54.810Z,69.10
2018-07-10T20:36:57.632Z,69.50
2018-07-10T20:40:00.345Z,69.30
2018-07-10T20:43:16.037Z,68.40
2018-07-10T20:46:34.581Z,68.80
2018-07-10T20:49:04.305Z,69.30
2018-07-10T20:51:09.448Z,70.40
2018-07-10T20:53:21.480Z,71.30
2018-07-10T20:55:30.825Z,70.80
2018-07-10T20:57:37.576Z,71.40
2018-07-10T20:59:43.085Z,71.00
2018-07-10T21:01:49.344Z,71.90
2018-07-10T21:04:33.145Z,72.40
2018-07-10T21:07:21.993Z,72.10
2018-07-10T21:10:07.735Z,71.90
2018-07-10T21:13:05.672Z,72.00
2018-07-10T21:15:52.417Z,72.60
2018-07-10T21:20:42.290Z,72.30
2018-07-10T21:23:29.136Z,72.50
2018-07-10T21:26:17.133Z,71.80
2018-07-10T21:28:58.362Z,72.00
2018-07-10T21:31:40.167Z,72.10
2018-07-10T21:34:21.677Z,73.00
2018-07-10T21:37:14.194Z,73.00
2018-07-10T21:40:15.530Z,73.00
2018-07-10T21:43:59.753Z,72.80
2018-07-10T21:46:47.722Z,72.70
2018-07-10T21:49:27.894Z,73.10
2018-07-10T21:52:01.414Z,73.20
2018-07-10T21:54:35.029Z,73.10
2018-07-10T21:57:10.595Z,73.80
2018-07-10T21:59:47.782Z,73.80
2018-07-10T22:02:21.454Z,73.70
2018-07-10T22:04:56.736Z,74.60
2018-07-10T22:07:30.922Z,74.60
2018-07-10T22:10:06.048Z,75.20
2018-07-10T22:12:43.987Z,75.70
2018-07-10T22:15:17.556Z,76.20
2018-07-10T22:17:51.422Z,75.90
2018-07-10T22:20:25.000Z,75.90
2018-07-10T22:22:58.510Z,75.90
2018-07-10T22:25:32.059Z,75.30
2018-07-10T22:28:05.624Z,75.80
2018-07-10T22:30:44.454Z,75.70
2018-07-10T22:33:18.018Z,75.40
2018-07-10T22:35:51.544Z,76.20
2018-07-10T22:38:25.003Z,75.70
2018-07-10T22:40:58.580Z,76.10
2018-07-10T22:43:32.164Z,76.10
2018-07-10T22:46:09.251Z,75.20
2018-07-10T22:48:45.440Z,75.10
2018-07-10T22:51:21.914Z,75.50
2018-07-10T22:53:59.920Z,75.80
2018-07-10T22:56:36.359Z,76.00
2018-07-10T22:59:12.821Z,76.20
2018-07-10T23:01:48.142Z,76.20
2018-07-10T23:04:24.003Z,76.30
2018-07-10T23:07:00.189Z,76.40
2018-07-10T23:09:34.093Z,77.20
2018-07-10T23:12:07.635Z,77.30
2018-07-10T23:14:41.170Z,76.60
2018-07-10T23:19:47.948Z,76.20
2018-07-10T23:22:25.913Z,76.10
2018-07-10T23:24:59.500Z,76.20
2018-07-10T23:27:33.043Z,75.80
2018-07-10T23:30:06.614Z,75.70
2018-07-10T23:32:40.772Z,75.90
2018-07-10T23:35:14.362Z,76.50
2018-07-10T23:37:53.139Z,76.40
2018-07-10T23:40:26.663Z,76.00
2018-07-10T23:43:00.206Z,75.80
2018-07-10T23:45:34.545Z,75.60
2018-07-10T23:48:08.118Z,77.10
2018-07-10T23:50:41.737Z,76.40
2018-07-10T23:53:23.821Z,76.60
2018-07-10T23:55:57.329Z,76.00
2018-07-10T23:58:30.929Z,76.20
